createdAt,value
2019-01-03T00:00:56.478Z,33.70
2019-01-03T00:03:48.737Z,33.80
2019-01-03T00:06:50.182Z,33.70
2019-01-03T00:09:48.665Z,34.10
2019-01-03T00:12:55.918Z,33.80
2019-01-03T00:15:49.706Z,33.70
2019-01-03T00:18:47.779Z,34.20
2019-01-03T00:21:35.511Z,34.00
2019-01-03T00:24:19.017Z,33.80
2019-01-03T00:27:20.210Z,33.80
2019-01-03T00:30:09.531Z,33.90
2019-01-03T00:32:58.911Z,33.90
2019-01-03T00:35:46.772Z,34.10
2019-01-03T00:38:39.070Z,33.90
2019-01-03T00:41:28.499Z,34.20
2019-01-03T00:44:20.647Z,34.10
2019-01-03T00:47:22.200Z,34.10
2019-01-03T00:50:09.882Z,33.90
2019-01-03T00:52:57.614Z,33.70
2019-01-03T00:55:52.755Z,33.70
2019-01-03T00:58:37.737Z,33.90
2019-01-03T01:01:28.048Z,34.00
2019-01-03T01:04:26.720Z,33.80
2019-01-03T01:07:25.232Z,33.80
2019-01-03T01:10:13.066Z,33.80
2019-01-03T01:13:12.401Z,33.80
2019-01-03T01:16:10.575Z,33.90
2019-01-03T01:18:58.706Z,34.50
2019-01-03T01:21:47.902Z,33.80
2019-01-03T01:24:35.736Z,33.40
2019-01-03T01:27:17.984Z,33.70
2019-01-03T01:30:06.063Z,33.70
2019-01-03T01:33:01.411Z,33.40
2019-01-03T01:35:50.317Z,33.80
2019-01-03T01:38:50.171Z,33.60
2019-01-03T01:41:29.546Z,33.60
2019-01-03T01:44:21.863Z,33.40
2019-01-03T01:47:09.657Z,33.70
2019-01-03T01:49:57.586Z,33.40
2019-01-03T01:52:46.926Z,33.10
2019-01-03T01:55:42.085Z,33.60
2019-01-03T01:58:40.541Z,33.50
2019-01-03T02:01:32.717Z,33.40
2019-01-03T02:04:22.100Z,33.10
2019-01-03T02:07:23.651Z,33.50
2019-01-03T02:10:11.186Z,33.10
2019-01-03T02:13:06.509Z,33.20
2019-01-03T02:16:04.971Z,33.30
2019-01-03T02:18:59.072Z,33.00
2019-01-03T02:21:46.682Z,33.30
2019-01-03T02:24:47.934Z,33.10
2019-01-03T02:27:35.549Z,33.50
2019-01-03T02:30:27.863Z,33.10
2019-01-03T02:33:35.330Z,33.30
2019-01-03T02:36:30.374Z,33.20
2019-01-03T02:39:28.576Z,33.00
2019-01-03T02:42:20.962Z,33.00
2019-01-03T02:45:03.697Z,33.10
2019-01-03T02:47:52.291Z,33.30
2019-01-03T02:50:50.325Z,33.40
2019-01-03T02:53:45.511Z,33.20
2019-01-03T02:56:37.565Z,33.70
2019-01-03T02:59:29.173Z,33.60
2019-01-03T03:02:16.991Z,33.70
2019-01-03T03:05:05.030Z,33.40
2019-01-03T03:08:12.588Z,33.60
2019-01-03T03:11:13.633Z,33.40
2019-01-03T03:14:15.315Z,33.30
2019-01-03T03:17:10.428Z,33.30
2019-01-03T03:19:52.046Z,33.50
2019-01-03T03:22:36.981Z,33.30
2019-01-03T03:25:29.896Z,33.60
2019-01-03T03:28:17.858Z,33.60
2019-01-03T03:31:05.693Z,33.50
2019-01-03T03:33:53.757Z,33.30
2019-01-03T03:36:48.995Z,33.30
2019-01-03T03:39:47.320Z,33.40
2019-01-03T03:42:35.386Z,33.20
2019-01-03T03:45:17.613Z,33.30
2019-01-03T03:48:09.828Z,33.30
2019-01-03T03:51:02.115Z,33.10
2019-01-03T03:53:49.903Z,33.30
2019-01-03T03:56:51.016Z,33.00
2019-01-03T03:59:58.365Z,33.40
2019-01-03T04:02:46.080Z,33.30
2019-01-03T04:05:33.995Z,33.20
2019-01-03T04:08:32.337Z,33.30
2019-01-03T04:11:30.576Z,33.30
2019-01-03T04:14:18.382Z,33.40
2019-01-03T04:17:25.904Z,33.50
2019-01-03T04:20:30.095Z,33.50
2019-01-03T04:23:25.069Z,33.40
2019-01-03T04:26:14.300Z,33.10
2019-01-03T04:29:02.122Z,33.10
2019-01-03T04:31:43.341Z,33.20
2019-01-03T04:34:35.786Z,33.30
2019-01-03T04:37:40.070Z,33.10
2019-01-03T04:40:47.221Z,33.10
2019-01-03T04:43:50.808Z,33.30
2019-01-03T04:46:38.734Z,33.20
2019-01-03T04:49:46.128Z,33.00
2019-01-03T04:52:47.404Z,33.10
2019-01-03T04:55:34.949Z,33.30
2019-01-03T04:58:27.034Z,33.10
2019-01-03T05:01:56.243Z,33.80
2019-01-03T05:05:03.713Z,33.20
2019-01-03T05:07:51.393Z,33.00
2019-01-03T05:10:35.109Z,33.00
2019-01-03T05:13:33.512Z,33.10
2019-01-03T05:16:37.912Z,33.10
2019-01-03T05:19:39.072Z,32.90
2019-01-03T05:22:28.549Z,33.20
2019-01-03T05:25:20.842Z,33.20
2019-01-03T05:28:10.082Z,33.30
2019-01-03T05:30:57.963Z,33.20
2019-01-03T05:33:56.096Z,33.20
2019-01-03T05:36:45.516Z,33.20
2019-01-03T05:39:37.941Z,33.00
2019-01-03T05:42:27.265Z,33.70
2019-01-03T05:45:29.808Z,33.00
2019-01-03T05:48:21.872Z,32.90
2019-01-03T05:51:20.089Z,34.30
2019-01-03T05:54:08.084Z,34.40
2019-01-03T05:57:09.237Z,34.30
2019-01-03T06:00:07.579Z,34.40
2019-01-03T06:03:12.111Z,32.70
2019-01-03T06:05:59.743Z,33.20
2019-01-03T06:08:47.803Z,32.50
2019-01-03T06:11:37.078Z,32.50
2019-01-03T06:14:32.178Z,32.60
2019-01-03T06:17:24.347Z,33.20
2019-01-03T06:20:10.893Z,32.90
2019-01-03T06:22:59.493Z,32.60
2019-01-03T06:25:57.514Z,33.20
2019-01-03T06:28:45.198Z,33.10
2019-01-03T06:31:46.770Z,32.60
2019-01-03T06:34:45.251Z,33.30
2019-01-03T06:37:39.432Z,33.40
2019-01-03T06:40:20.432Z,33.20
2019-01-03T06:43:08.447Z,33.30
2019-01-03T06:46:15.661Z,32.90
2019-01-03T06:49:03.217Z,33.00
2019-01-03T06:51:50.670Z,33.30
2019-01-03T06:54:55.052Z,33.10
2019-01-03T06:57:43.116Z,33.10
2019-01-03T07:00:28.388Z,33.30
2019-01-03T07:03:23.866Z,33.10
2019-01-03T07:06:26.808Z,33.30
2019-01-03T07:12:17.683Z,33.90
2019-01-03T07:15:06.446Z,33.40
2019-01-03T07:21:28.934Z,34.30
2019-01-03T07:24:22.642Z,33.00
2019-01-03T07:27:14.084Z,35.00
2019-01-03T07:30:18.708Z,35.50
2019-01-03T07:33:11.173Z,36.40
2019-01-03T07:36:36.416Z,36.40
2019-01-03T07:39:20.395Z,36.70
2019-01-03T07:42:15.681Z,37.00
2019-01-03T07:45:03.862Z,37.20
2019-01-03T07:47:59.081Z,38.60
2019-01-03T07:53:35.742Z,40.00
2019-01-03T07:56:43.104Z,39.20
2019-01-03T07:59:35.617Z,40.30
2019-01-03T08:02:25.628Z,40.20
2019-01-03T08:05:16.659Z,40.50
2019-01-03T08:08:26.847Z,41.00
2019-01-03T08:13:14.601Z,41.20
2019-01-03T08:24:10.926Z,41.40
2019-01-03T08:27:01.442Z,40.70
2019-01-03T08:29:57.161Z,41.10
2019-01-03T08:32:55.685Z,40.90
2019-01-03T08:35:45.093Z,42.30
2019-01-03T08:38:34.384Z,42.30
2019-01-03T08:41:17.042Z,42.50
2019-01-03T08:47:19.778Z,42.50
2019-01-03T08:50:34.410Z,43.40
2019-01-03T08:53:31.835Z,42.70
2019-01-03T09:04:53.384Z,44.00
2019-01-03T09:07:44.692Z,43.10
2019-01-03T09:10:46.975Z,43.10
2019-01-03T09:13:36.753Z,43.30
2019-01-03T09:16:30.318Z,33.80
2019-01-03T09:19:19.352Z,37.20
2019-01-03T09:22:08.456Z,38.70
2019-01-03T09:25:02.300Z,39.60
2019-01-03T09:28:06.122Z,40.00
2019-01-03T09:30:56.686Z,39.40
2019-01-03T09:33:46.131Z,39.90
2019-01-03T09:36:44.401Z,39.80
2019-01-03T09:39:36.375Z,40.00
2019-01-03T09:42:27.510Z,40.00
2019-01-03T09:44:59.451Z,40.00
2019-01-03T09:47:29.927Z,40.90
2019-01-03T09:50:01.782Z,41.10
2019-01-03T09:52:54.692Z,41.80
2019-01-03T09:55:26.810Z,41.20
2019-01-03T09:57:59.927Z,41.90
2019-01-03T10:00:30.323Z,41.90
2019-01-03T10:03:00.703Z,41.90
2019-01-03T10:05:31.265Z,41.70
2019-01-03T10:08:19.385Z,42.10
2019-01-03T10:10:45.551Z,42.40
2019-01-03T10:13:16.668Z,28.80
2019-01-03T10:15:47.215Z,27.40
2019-01-03T10:18:21.237Z,28.40
2019-01-03T10:21:01.114Z,44.90
2019-01-03T10:23:36.778Z,44.30
2019-01-03T10:26:07.610Z,45.00
2019-01-03T10:28:38.170Z,44.70
2019-01-03T10:31:08.982Z,44.60
2019-01-03T10:33:51.865Z,43.10
2019-01-03T10:36:24.466Z,43.60
2019-01-03T10:38:55.063Z,43.40
2019-01-03T10:41:25.583Z,41.70
2019-01-03T10:43:55.924Z,43.70
2019-01-03T10:46:30.313Z,44.30
2019-01-03T10:49:00.061Z,44.50
2019-01-03T10:51:30.372Z,44.70
2019-01-03T10:54:04.275Z,44.70
2019-01-03T10:56:34.758Z,44.20
2019-01-03T10:59:05.235Z,45.40
2019-01-03T11:01:34.203Z,44.90
2019-01-03T11:06:40.856Z,29.70
2019-01-03T11:11:44.372Z,32.50
2019-01-03T11:14:34.129Z,45.60
2019-01-03T11:17:04.649Z,45.70
2019-01-03T11:19:35.150Z,44.60
2019-01-03T11:22:05.925Z,47.30
2019-01-03T11:24:36.284Z,45.30
2019-01-03T11:27:06.500Z,45.00
2019-01-03T11:29:36.989Z,42.80
2019-01-03T11:32:07.379Z,42.10
2019-01-03T11:34:39.495Z,41.00
2019-01-03T11:39:40.661Z,40.40
2019-01-03T11:42:11.158Z,39.70
2019-01-03T11:44:42.600Z,38.40
2019-01-03T11:47:14.191Z,38.60
2019-01-03T11:49:44.524Z,37.80
2019-01-03T11:52:14.859Z,36.80
2019-01-03T11:54:46.547Z,37.70
2019-01-03T11:57:18.850Z,36.30
2019-01-03T11:59:49.221Z,37.10
2019-01-03T12:02:25.448Z,38.10
2019-01-03T12:07:28.100Z,41.10
2019-01-03T12:09:57.144Z,41.50
2019-01-03T12:15:21.020Z,41.20
2019-01-03T12:20:33.430Z,43.90
2019-01-03T12:23:08.542Z,45.20
2019-01-03T12:25:39.471Z,45.90
2019-01-03T12:28:20.020Z,44.70
2019-01-03T12:30:50.933Z,43.90
2019-01-03T12:33:21.575Z,32.60
2019-01-03T12:35:52.351Z,36.60
2019-01-03T12:38:25.621Z,34.20
2019-01-03T12:40:58.739Z,29.80
2019-01-03T12:43:29.224Z,31.60
2019-01-03T12:46:00.978Z,30.20
2019-01-03T12:48:31.552Z,34.70
2019-01-03T12:51:03.246Z,29.60
2019-01-03T12:53:39.503Z,28.30
2019-01-03T12:56:10.454Z,32.60
2019-01-03T12:58:40.985Z,27.60
2019-01-03T13:01:13.527Z,27.70
2019-01-03T13:06:26.045Z,42.30
2019-01-03T13:09:23.315Z,42.10
2019-01-03T13:12:14.731Z,43.30
2019-01-03T13:15:07.160Z,43.00
2019-01-03T13:17:41.185Z,42.70
2019-01-03T13:20:11.487Z,43.10
2019-01-03T13:25:36.350Z,43.50
2019-01-03T13:28:10.794Z,43.90
2019-01-03T13:30:47.860Z,30.20
2019-01-03T13:35:50.416Z,36.20
2019-01-03T13:46:03.399Z,67.10
2019-01-03T13:48:33.795Z,63.20
2019-01-03T13:51:04.610Z,62.90
2019-01-03T13:53:35.776Z,52.10
2019-01-03T13:59:13.863Z,52.00
2019-01-03T14:01:48.054Z,55.20
2019-01-03T14:04:24.710Z,57.10
2019-01-03T14:13:23.337Z,48.40
2019-01-03T14:15:58.367Z,39.10
2019-01-03T14:18:29.873Z,35.00
2019-01-03T14:21:21.559Z,28.30
2019-01-03T14:23:54.523Z,31.90
2019-01-03T14:29:24.379Z,33.30
2019-01-03T14:37:17.068Z,71.20
2019-01-03T14:39:58.032Z,50.10
2019-01-03T14:42:38.033Z,40.40
2019-01-03T14:45:20.897Z,41.30
2019-01-03T14:48:07.001Z,39.40
2019-01-03T14:50:49.819Z,41.60
2019-01-03T14:53:40.254Z,43.90
2019-01-03T14:56:13.739Z,41.20
2019-01-03T14:59:20.602Z,43.70
2019-01-03T15:01:36.106Z,42.50
2019-01-03T15:04:18.762Z,47.00
2019-01-03T15:06:52.745Z,47.00
2019-01-03T15:09:36.636Z,56.70
2019-01-03T15:12:10.188Z,50.10
2019-01-03T15:14:40.682Z,44.20
2019-01-03T15:17:11.293Z,51.50
2019-01-03T15:19:41.617Z,44.70
2019-01-03T15:22:12.140Z,47.00
2019-01-03T15:24:42.452Z,44.60
2019-01-03T15:27:13.124Z,40.20
2019-01-03T15:29:43.674Z,40.20
2019-01-03T15:32:16.662Z,41.70
2019-01-03T15:34:47.302Z,40.60
2019-01-03T15:37:17.662Z,38.50
2019-01-03T15:39:48.132Z,41.70
2019-01-03T15:42:18.750Z,44.20
2019-01-03T15:44:49.208Z,43.80
2019-01-03T15:47:19.776Z,42.90
2019-01-03T15:49:50.299Z,39.30
2019-01-03T15:52:20.712Z,42.80
2019-01-03T15:55:17.547Z,40.20
2019-01-03T15:57:47.899Z,41.30
2019-01-03T16:00:18.162Z,40.50
2019-01-03T16:02:48.330Z,40.60
2019-01-03T16:05:20.652Z,37.80
2019-01-03T16:07:51.001Z,39.60
2019-01-03T16:10:21.247Z,43.20
2019-01-03T16:12:51.489Z,40.10
2019-01-03T16:15:24.199Z,40.00
2019-01-03T16:17:57.430Z,40.20
2019-01-03T16:20:27.848Z,52.30
2019-01-03T16:22:58.193Z,52.30
2019-01-03T16:25:28.551Z,50.00
2019-01-03T16:30:30.640Z,45.00
2019-01-03T16:33:01.078Z,43.20
2019-01-03T16:35:31.593Z,41.40
2019-01-03T16:38:02.021Z,40.00
2019-01-03T16:40:35.003Z,38.90
2019-01-03T16:43:05.427Z,37.90
2019-01-03T16:45:35.783Z,38.40
2019-01-03T16:48:06.173Z,37.00
2019-01-03T16:50:36.421Z,36.70
2019-01-03T16:53:06.899Z,35.90
2019-01-03T16:55:37.210Z,35.80
2019-01-03T16:58:07.493Z,35.10
2019-01-03T17:00:38.009Z,33.70
2019-01-03T17:03:08.302Z,33.50
2019-01-03T17:05:38.702Z,33.60
2019-01-03T17:08:09.010Z,32.10
2019-01-03T17:10:39.541Z,32.30
2019-01-03T17:13:10.118Z,31.80
2019-01-03T17:15:40.559Z,31.60
2019-01-03T17:18:11.054Z,31.30
2019-01-03T17:20:41.426Z,30.60
2019-01-03T17:23:11.946Z,30.60
2019-01-03T17:25:42.439Z,30.00
2019-01-03T17:28:12.902Z,29.70
2019-01-03T17:30:43.392Z,29.20
2019-01-03T17:33:13.758Z,29.20
2019-01-03T17:35:44.147Z,28.90
2019-01-03T17:38:14.480Z,28.70
2019-01-03T17:40:44.945Z,28.60
2019-01-03T17:43:15.231Z,28.60
2019-01-03T17:45:45.614Z,28.10
2019-01-03T17:48:16.013Z,28.20
2019-01-03T17:50:46.318Z,28.00
2019-01-03T17:53:16.610Z,28.00
2019-01-03T17:55:47.010Z,27.60
2019-01-03T17:58:17.389Z,27.80
2019-01-03T18:00:48.200Z,27.10
2019-01-03T18:03:18.729Z,27.10
2019-01-03T18:05:49.191Z,27.10
2019-01-03T18:08:19.486Z,26.90
2019-01-03T18:10:49.899Z,26.90
2019-01-03T18:13:20.362Z,26.90
2019-01-03T18:15:50.886Z,26.90
2019-01-03T18:18:21.420Z,27.00
2019-01-03T18:20:51.917Z,27.20
2019-01-03T18:23:22.373Z,27.30
2019-01-03T18:25:52.693Z,27.10
2019-01-03T18:28:22.945Z,27.00
2019-01-03T18:30:53.353Z,27.30
2019-01-03T18:33:24.613Z,27.60
2019-01-03T18:35:55.089Z,27.30
2019-01-03T18:38:25.521Z,27.40
2019-01-03T18:40:56.061Z,27.80
2019-01-03T18:43:26.443Z,27.90
2019-01-03T18:45:56.755Z,27.90
2019-01-03T18:48:27.151Z,27.70
2019-01-03T18:50:57.441Z,27.60
2019-01-03T18:53:27.787Z,27.70
2019-01-03T18:55:58.214Z,28.00
2019-01-03T18:58:28.582Z,27.90
2019-01-03T19:01:00.573Z,27.90
2019-01-03T19:03:31.044Z,28.10
2019-01-03T19:06:01.454Z,28.60
2019-01-03T19:08:31.812Z,28.90
2019-01-03T19:11:02.276Z,28.40
2019-01-03T19:13:32.774Z,28.10
2019-01-03T19:16:03.194Z,27.90
2019-01-03T19:18:33.666Z,27.70
2019-01-03T19:21:04.150Z,27.60
2019-01-03T19:23:34.464Z,27.30
2019-01-03T19:26:05.054Z,27.10
2019-01-03T19:28:35.582Z,27.00
2019-01-03T19:31:05.966Z,26.80
2019-01-03T19:33:36.340Z,26.60
2019-01-03T19:36:06.735Z,26.70
2019-01-03T19:38:37.199Z,26.50
2019-01-03T19:41:07.636Z,26.50
2019-01-03T19:43:38.064Z,26.40
2019-01-03T19:46:08.462Z,26.20
2019-01-03T19:48:38.988Z,26.30
2019-01-03T19:51:09.319Z,26.10
2019-01-03T19:53:39.797Z,26.10
2019-01-03T19:56:10.326Z,25.90
2019-01-03T19:58:40.801Z,25.70
2019-01-03T20:01:11.334Z,25.90
2019-01-03T20:03:41.780Z,25.60
2019-01-03T20:06:12.115Z,25.50
2019-01-03T20:08:42.569Z,25.40
2019-01-03T20:11:13.049Z,25.30
2019-01-03T20:13:43.546Z,25.50
2019-01-03T20:16:14.036Z,25.20
2019-01-03T20:18:44.514Z,25.10
2019-01-03T20:21:14.902Z,25.00
2019-01-03T20:23:45.391Z,25.00
2019-01-03T20:26:15.873Z,25.30
2019-01-03T20:28:46.290Z,25.00
2019-01-03T20:31:17.742Z,25.00
2019-01-03T20:33:48.150Z,25.00
2019-01-03T20:36:18.656Z,25.00
2019-01-03T20:38:49.066Z,25.00
2019-01-03T20:41:19.512Z,24.70
2019-01-03T20:43:49.958Z,24.60
2019-01-03T20:46:20.374Z,24.60
2019-01-03T20:48:50.822Z,24.60
2019-01-03T20:51:21.298Z,25.00
2019-01-03T20:53:51.622Z,24.60
2019-01-03T20:56:22.137Z,24.60
2019-01-03T20:58:52.576Z,24.80
2019-01-03T21:01:23.069Z,24.80
2019-01-03T21:03:54.732Z,24.80
2019-01-03T21:06:25.117Z,24.70
2019-01-03T21:08:55.501Z,25.30
2019-01-03T21:11:25.904Z,24.40
2019-01-03T21:13:56.298Z,24.40
2019-01-03T21:16:26.741Z,24.60
2019-01-03T21:19:00.033Z,24.50
2019-01-03T21:21:30.566Z,24.40
2019-01-03T21:24:01.046Z,24.50
2019-01-03T21:26:31.476Z,24.50
2019-01-03T21:29:01.961Z,24.90
2019-01-03T21:31:32.406Z,25.00
2019-01-03T21:34:02.823Z,25.20
2019-01-03T21:36:33.333Z,25.80
2019-01-03T21:39:03.884Z,26.00
2019-01-03T21:41:35.376Z,25.90
2019-01-03T21:44:05.748Z,26.10
2019-01-03T21:46:36.042Z,26.30
2019-01-03T21:49:06.437Z,26.40
2019-01-03T21:51:36.990Z,26.50
2019-01-03T21:54:07.517Z,27.10
2019-01-03T21:56:38.002Z,27.10
2019-01-03T21:59:08.548Z,27.20
2019-01-03T22:01:38.973Z,27.30
2019-01-03T22:04:09.510Z,27.60
2019-01-03T22:06:39.899Z,27.50
2019-01-03T22:09:10.247Z,27.70
2019-01-03T22:11:40.893Z,27.80
2019-01-03T22:14:11.317Z,27.70
2019-01-03T22:16:41.744Z,27.90
2019-01-03T22:19:12.271Z,28.10
2019-01-03T22:21:42.615Z,28.10
2019-01-03T22:24:13.126Z,28.50
2019-01-03T22:26:43.569Z,28.40
2019-01-03T22:29:13.960Z,28.50
2019-01-03T22:31:44.321Z,28.20
2019-01-03T22:34:14.685Z,28.10
2019-01-03T22:36:45.004Z,28.10
2019-01-03T22:39:15.409Z,27.90
2019-01-03T22:41:45.817Z,27.80
2019-01-03T22:44:16.204Z,27.60
2019-01-03T22:46:46.661Z,27.50
2019-01-03T22:49:17.026Z,27.90
2019-01-03T22:51:47.548Z,27.70
2019-01-03T22:54:18.028Z,27.70
2019-01-03T22:56:48.586Z,28.00
2019-01-03T22:59:19.054Z,27.50
2019-01-03T23:01:49.561Z,27.90
2019-01-03T23:04:21.477Z,27.80
2019-01-03T23:06:51.793Z,28.00
2019-01-03T23:09:22.237Z,27.80
2019-01-03T23:11:52.658Z,27.80
2019-01-03T23:14:23.069Z,27.80
2019-01-03T23:16:53.527Z,27.90
2019-01-03T23:19:24.040Z,27.90
2019-01-03T23:21:54.469Z,27.90
2019-01-03T23:24:24.780Z,27.80
2019-01-03T23:26:55.243Z,27.80
2019-01-03T23:29:25.714Z,27.80
2019-01-03T23:31:56.178Z,28.00
2019-01-03T23:34:28.267Z,27.90
2019-01-03T23:36:58.698Z,28.00
2019-01-03T23:39:28.971Z,28.00
2019-01-03T23:41:59.426Z,27.70
2019-01-03T23:44:29.746Z,27.90
2019-01-03T23:47:00.181Z,27.90
2019-01-03T23:49:30.582Z,28.00
2019-01-03T23:52:01.023Z,27.70
2019-01-03T23:54:31.454Z,28.00
2019-01-03T23:57:01.923Z,27.90
2019-01-03T23:59:32.398Z,27.80
